UMMSUMOO

Guest
Details From UMMS - Minsk Velikiydvor
To UMOO - Mogilev
Flight Number -
Tags generated
Created
Modified
Stats Distance 73 nm / 135 km
Max Altitude 0 ft / 0 m
Waypoints 2
Social Downloads 0
Likes 0
Share VATSIM

Download

Looking for another format? Having issues loading an existing format? Contact us
Advertisement - Login to hide

Notes

Basic altitude profile: - Ascent Rate: 2500ft/min - Ascent Speed: 250kts - Cruise Altitude: 35000ft - Cruise Speed: 420kts - Descent Rate: 1500ft/min - Descent Speed: 250kts Options: - Use NATs: yes - Use PACOTS: yes - Use low airways: yes - Use high airways: no

Route

UMMS UMOO

ID Type Via Altitude Latitude Longitude Leg Dist Tot Dist Heading (true) Name
O UMMS APT - 0 ft / 0 m 53.88255˚ 28.03079˚ - 0 nm - Minsk Velikiydvor
O UMOO APT - 0 ft / 0 m 53.95530˚ 30.09453˚ 73 nm 73 nm 86° / 87° Mogilev

Altitude Profile

Advertisement - Login to hide

UMMS

Details ICAO UMMS (MSQ)
Name Minsk Velikiydvor
Region Belarus and Russia (Kaliningrad Oblast)
Timezone Europe/Minsk (UTC+3.0)
Stats Elevation 669 ft / 204 m (AMSL)
Location 53.882550° 28.030786°
Runways 1
Magnetic Variation 8.066° E

METAR

UMMS 241430Z 35003MPS 9999 SCT035CB BKN076 18/13 Q1022 R31/190060 TEMPO VRB14MPS 1500 TSRA SQ BKN005

Decode

TAF

TAF UMMS 241104Z 2412/2512 03005G10MPS 9999 BKN020 TEMPO 2412/2422 VRB14MPS 1500 TSRA SQ SCT005 BKN025CB TEMPO 2422/2507 06005MPS 1200 -SHRA BR BKN003 BKN015CB

Decode

Departure Runways

ID Width Length Bearing (true) Bearing (mag) Surface Threshold Offset Overrun Length
13 197 ft / 60 m 11,938 ft / 3,639 m 138.85° 130.78° Concrete 0 ft / 0 m 0 ft / 0 m
31 197 ft / 60 m 11,938 ft / 3,639 m 318.88° 310.81° Concrete 0 ft / 0 m 0 ft / 0 m

UMOO

Details ICAO UMOO (MVQ)
Name Mogilev
Region Belarus and Russia (Kaliningrad Oblast)
Timezone Europe/Minsk (UTC+3.0)
Stats Elevation 636 ft / 194 m (AMSL)
Location 53.955295° 30.094527°
Runways 1
Magnetic Variation 8.615° E

METAR

UMOO 241330Z 34002MPS 9999 BKN025 BKN/// 19/12 Q1021 R31/CLRD// TEMPO 2100 -TSRA BKN007 SCT015CB

Decode

TAF

Not found

Destination Runways

ID Width Length Bearing (true) Bearing (mag) Surface Threshold Offset Overrun Length
13 138 ft / 42 m 8,499 ft / 2,591 m 136.75° 128.13° Asphalt 0 ft / 0 m 0 ft / 0 m
31 138 ft / 42 m 8,499 ft / 2,591 m 316.78° 308.16° Asphalt 0 ft / 0 m 0 ft / 0 m

Approach Navaids

Runway Type Ident Frequency Range Bearing (true) Bearing (mag) Slope Elevation
13 Localiser IUF 111.10 MHz 18 nm / 33 km 133.93° 125.31° - 636 ft / 194 m (AMSL)
13 Glidescope IUF 111.10 MHz 10 nm / 19 km 136.76° 128.15° 2.80° 636 ft / 194 m (AMSL)

Popular Alternatives